sensor_id;sensor_type;location;lat;lon;timestamp;temperature;humidity
12887;DHT22;6511;49.746;6.094;2023-04-08T00:00:35;5.30;99.90
12887;DHT22;6511;49.746;6.094;2023-04-08T00:03:01;5.40;99.90
12887;DHT22;6511;49.746;6.094;2023-04-08T00:05:27;5.20;99.90
12887;DHT22;6511;49.746;6.094;2023-04-08T00:07:53;5.30;99.90
12887;DHT22;6511;49.746;6.094;2023-04-08T00:10:19;5.20;99.90
12887;DHT22;6511;49.746;6.094;2023-04-08T00:12:45;5.10;99.90
12887;DHT22;6511;49.746;6.094;2023-04-08T00:15:11;5.10;99.90
12887;DHT22;6511;49.746;6.094;2023-04-08T00:17:37;5.10;99.90
12887;DHT22;6511;49.746;6.094;2023-04-08T00:20:03;5.00;99.90
12887;DHT22;6511;49.746;6.094;2023-04-08T00:22:29;5.10;99.90
12887;DHT22;6511;49.746;6.094;2023-04-08T00:24:56;5.10;99.90
12887;DHT22;6511;49.746;6.094;2023-04-08T00:27:21;5.00;99.90
12887;DHT22;6511;49.746;6.094;2023-04-08T00:29:49;5.00;99.90
12887;DHT22;6511;49.746;6.094;2023-04-08T00:32:15;5.00;99.90
12887;DHT22;6511;49.746;6.094;2023-04-08T00:34:40;5.00;99.90
12887;DHT22;6511;49.746;6.094;2023-04-08T00:37:06;5.00;99.90
12887;DHT22;6511;49.746;6.094;2023-04-08T00:39:32;5.00;99.90
12887;DHT22;6511;49.746;6.094;2023-04-08T00:41:57;5.00;99.90
12887;DHT22;6511;49.746;6.094;2023-04-08T00:44:23;5.00;99.90
12887;DHT22;6511;49.746;6.094;2023-04-08T00:46:48;5.00;99.90
12887;DHT22;6511;49.746;6.094;2023-04-08T00:49:14;5.00;99.90
12887;DHT22;6511;49.746;6.094;2023-04-08T00:51:40;5.00;99.90
12887;DHT22;6511;49.746;6.094;2023-04-08T00:54:06;5.00;99.90
12887;DHT22;6511;49.746;6.094;2023-04-08T00:56:32;5.10;99.90
12887;DHT22;6511;49.746;6.094;2023-04-08T00:59:05;5.10;99.90
12887;DHT22;6511;49.746;6.094;2023-04-08T01:01:38;5.10;99.90
12887;DHT22;6511;49.746;6.094;2023-04-08T01:07:14;5.20;99.90
12887;DHT22;6511;49.746;6.094;2023-04-08T01:09:46;5.20;99.90
12887;DHT22;6511;49.746;6.094;2023-04-08T01:12:19;5.20;99.90
12887;DHT22;6511;49.746;6.094;2023-04-08T01:14:47;5.20;99.90
12887;DHT22;6511;49.746;6.094;2023-04-08T01:17:18;5.20;99.90
12887;DHT22;6511;49.746;6.094;2023-04-08T01:19:44;5.20;99.90
12887;DHT22;6511;49.746;6.094;2023-04-08T01:25:05;5.20;99.90
12887;DHT22;6511;49.746;6.094;2023-04-08T01:27:34;5.10;99.90
12887;DHT22;6511;49.746;6.094;2023-04-08T01:30:01;5.00;99.90
12887;DHT22;6511;49.746;6.094;2023-04-08T01:32:28;4.90;99.90
12887;DHT22;6511;49.746;6.094;2023-04-08T01:34:55;4.80;99.90
12887;DHT22;6511;49.746;6.094;2023-04-08T01:37:22;4.70;99.90
12887;DHT22;6511;49.746;6.094;2023-04-08T01:39:51;4.60;99.90
12887;DHT22;6511;49.746;6.094;2023-04-08T01:42:17;4.60;99.90
12887;DHT22;6511;49.746;6.094;2023-04-08T01:44:44;4.70;99.90
12887;DHT22;6511;49.746;6.094;2023-04-08T01:47:12;4.60;99.90
12887;DHT22;6511;49.746;6.094;2023-04-08T01:49:38;4.70;99.90
12887;DHT22;6511;49.746;6.094;2023-04-08T01:52:05;4.70;99.90
12887;DHT22;6511;49.746;6.094;2023-04-08T01:54:33;4.60;99.90
12887;DHT22;6511;49.746;6.094;2023-04-08T01:57:01;4.60;99.90
12887;DHT22;6511;49.746;6.094;2023-04-08T01:59:33;4.60;99.90
12887;DHT22;6511;49.746;6.094;2023-04-08T02:02:01;4.60;99.90
12887;DHT22;6511;49.746;6.094;2023-04-08T02:04:28;4.60;99.90
12887;DHT22;6511;49.746;6.094;2023-04-08T02:06:55;4.60;99.90
12887;DHT22;6511;49.746;6.094;2023-04-08T02:09:21;4.70;99.90
12887;DHT22;6511;49.746;6.094;2023-04-08T02:11:47;4.70;99.90
12887;DHT22;6511;49.746;6.094;2023-04-08T02:14:13;4.70;99.90
12887;DHT22;6511;49.746;6.094;2023-04-08T02:16:55;4.70;99.90
12887;DHT22;6511;49.746;6.094;2023-04-08T02:19:45;4.60;99.90
12887;DHT22;6511;49.746;6.094;2023-04-08T02:22:18;4.60;99.90
12887;DHT22;6511;49.746;6.094;2023-04-08T02:24:45;4.60;99.90
12887;DHT22;6511;49.746;6.094;2023-04-08T02:27:11;4.50;99.90
12887;DHT22;6511;49.746;6.094;2023-04-08T02:29:39;4.50;99.90
12887;DHT22;6511;49.746;6.094;2023-04-08T02:32:05;4.50;99.90
12887;DHT22;6511;49.746;6.094;2023-04-08T02:34:34;4.60;99.90
12887;DHT22;6511;49.746;6.094;2023-04-08T02:37:01;4.60;99.90
12887;DHT22;6511;49.746;6.094;2023-04-08T02:39:33;4.50;99.90
12887;DHT22;6511;49.746;6.094;2023-04-08T02:41:59;4.60;99.90
12887;DHT22;6511;49.746;6.094;2023-04-08T02:44:25;4.50;99.90
12887;DHT22;6511;49.746;6.094;2023-04-08T02:46:51;4.50;99.90
12887;DHT22;6511;49.746;6.094;2023-04-08T02:49:16;4.50;99.90
12887;DHT22;6511;49.746;6.094;2023-04-08T02:51:42;4.60;99.90
12887;DHT22;6511;49.746;6.094;2023-04-08T02:54:07;4.60;99.90
12887;DHT22;6511;49.746;6.094;2023-04-08T02:56:33;4.60;99.90
12887;DHT22;6511;49.746;6.094;2023-04-08T02:58:58;4.70;99.90
12887;DHT22;6511;49.746;6.094;2023-04-08T03:01:24;4.70;99.90
12887;DHT22;6511;49.746;6.094;2023-04-08T03:03:50;4.60;99.90
12887;DHT22;6511;49.746;6.094;2023-04-08T03:06:15;4.50;99.90
12887;DHT22;6511;49.746;6.094;2023-04-08T03:08:41;4.40;99.90
12887;DHT22;6511;49.746;6.094;2023-04-08T03:11:07;4.30;99.90
12887;DHT22;6511;49.746;6.094;2023-04-08T03:13:32;4.20;99.90
12887;DHT22;6511;49.746;6.094;2023-04-08T03:15:58;4.20;99.90
12887;DHT22;6511;49.746;6.094;2023-04-08T03:18:24;4.20;99.90
12887;DHT22;6511;49.746;6.094;2023-04-08T03:20:50;4.20;99.90
12887;DHT22;6511;49.746;6.094;2023-04-08T03:23:16;4.20;99.90
12887;DHT22;6511;49.746;6.094;2023-04-08T03:25:41;4.20;99.90
12887;DHT22;6511;49.746;6.094;2023-04-08T03:28:07;4.10;99.90
12887;DHT22;6511;49.746;6.094;2023-04-08T03:30:32;4.00;99.90
12887;DHT22;6511;49.746;6.094;2023-04-08T03:32:58;4.10;99.90
12887;DHT22;6511;49.746;6.094;2023-04-08T03:35:24;4.00;99.90
12887;DHT22;6511;49.746;6.094;2023-04-08T03:37:49;4.00;99.90
12887;DHT22;6511;49.746;6.094;2023-04-08T03:40:15;3.90;99.90
12887;DHT22;6511;49.746;6.094;2023-04-08T03:42:41;3.90;99.90
12887;DHT22;6511;49.746;6.094;2023-04-08T03:45:07;3.90;99.90
12887;DHT22;6511;49.746;6.094;2023-04-08T03:47:33;3.90;99.90
12887;DHT22;6511;49.746;6.094;2023-04-08T03:49:59;3.70;99.90
12887;DHT22;6511;49.746;6.094;2023-04-08T03:52:24;3.60;99.90
12887;DHT22;6511;49.746;6.094;2023-04-08T03:54:50;3.60;99.90
12887;DHT22;6511;49.746;6.094;2023-04-08T03:57:15;3.50;99.90
12887;DHT22;6511;49.746;6.094;2023-04-08T03:59:41;3.40;99.90
12887;DHT22;6511;49.746;6.094;2023-04-08T04:02:06;3.30;99.90
12887;DHT22;6511;49.746;6.094;2023-04-08T04:04:33;3.30;99.90
12887;DHT22;6511;49.746;6.094;2023-04-08T04:07:00;3.20;99.90
12887;DHT22;6511;49.746;6.094;2023-04-08T04:09:25;3.10;99.90
12887;DHT22;6511;49.746;6.094;2023-04-08T04:11:51;3.00;99.90
12887;DHT22;6511;49.746;6.094;2023-04-08T04:14:17;2.90;99.90
12887;DHT22;6511;49.746;6.094;2023-04-08T04:16:42;2.60;99.90
12887;DHT22;6511;49.746;6.094;2023-04-08T04:19:08;2.60;99.90
12887;DHT22;6511;49.746;6.094;2023-04-08T04:21:33;2.60;99.90
12887;DHT22;6511;49.746;6.094;2023-04-08T04:23:59;2.50;99.90
12887;DHT22;6511;49.746;6.094;2023-04-08T04:26:25;2.50;99.90
12887;DHT22;6511;49.746;6.094;2023-04-08T04:28:50;2.40;99.90
12887;DHT22;6511;49.746;6.094;2023-04-08T04:31:23;2.40;99.90
12887;DHT22;6511;49.746;6.094;2023-04-08T04:33:52;2.40;99.90
12887;DHT22;6511;49.746;6.094;2023-04-08T04:36:17;2.30;99.90
12887;DHT22;6511;49.746;6.094;2023-04-08T04:38:45;2.20;99.90
12887;DHT22;6511;49.746;6.094;2023-04-08T04:41:11;2.30;99.90
12887;DHT22;6511;49.746;6.094;2023-04-08T04:43:36;2.30;99.90
12887;DHT22;6511;49.746;6.094;2023-04-08T04:46:02;2.40;99.90
12887;DHT22;6511;49.746;6.094;2023-04-08T04:48:32;2.50;99.90
12887;DHT22;6511;49.746;6.094;2023-04-08T04:50:58;2.50;99.90
12887;DHT22;6511;49.746;6.094;2023-04-08T04:53:24;2.40;99.90
12887;DHT22;6511;49.746;6.094;2023-04-08T04:55:50;2.40;99.90
12887;DHT22;6511;49.746;6.094;2023-04-08T04:58:16;2.40;99.90
12887;DHT22;6511;49.746;6.094;2023-04-08T05:00:42;2.40;99.90
12887;DHT22;6511;49.746;6.094;2023-04-08T05:03:08;2.40;99.90
12887;DHT22;6511;49.746;6.094;2023-04-08T05:05:34;2.40;99.90
12887;DHT22;6511;49.746;6.094;2023-04-08T05:08:00;2.40;99.90
12887;DHT22;6511;49.746;6.094;2023-04-08T05:10:25;2.30;99.90
12887;DHT22;6511;49.746;6.094;2023-04-08T05:12:51;2.10;99.90
12887;DHT22;6511;49.746;6.094;2023-04-08T05:15:17;2.10;99.90
12887;DHT22;6511;49.746;6.094;2023-04-08T05:17:42;2.10;99.90
12887;DHT22;6511;49.746;6.094;2023-04-08T05:20:08;2.10;99.90
12887;DHT22;6511;49.746;6.094;2023-04-08T05:22:34;2.20;99.90
12887;DHT22;6511;49.746;6.094;2023-04-08T05:24:59;2.20;99.90
12887;DHT22;6511;49.746;6.094;2023-04-08T05:27:25;2.20;99.90
12887;DHT22;6511;49.746;6.094;2023-04-08T05:29:51;2.20;99.90
12887;DHT22;6511;49.746;6.094;2023-04-08T05:32:17;2.30;99.90
12887;DHT22;6511;49.746;6.094;2023-04-08T05:34:43;2.30;99.90
12887;DHT22;6511;49.746;6.094;2023-04-08T05:37:09;2.30;99.90
12887;DHT22;6511;49.746;6.094;2023-04-08T05:39:34;2.20;99.90
12887;DHT22;6511;49.746;6.094;2023-04-08T05:42:00;1.90;99.90
12887;DHT22;6511;49.746;6.094;2023-04-08T05:44:26;2.00;99.90
12887;DHT22;6511;49.746;6.094;2023-04-08T05:46:52;1.90;99.90
12887;DHT22;6511;49.746;6.094;2023-04-08T05:49:18;1.90;99.90
12887;DHT22;6511;49.746;6.094;2023-04-08T05:51:43;2.00;99.90
12887;DHT22;6511;49.746;6.094;2023-04-08T05:54:09;2.00;99.90
12887;DHT22;6511;49.746;6.094;2023-04-08T05:56:35;2.10;99.90
12887;DHT22;6511;49.746;6.094;2023-04-08T05:59:00;2.20;99.90
12887;DHT22;6511;49.746;6.094;2023-04-08T06:01:26;2.10;99.90
12887;DHT22;6511;49.746;6.094;2023-04-08T06:03:52;2.10;99.90
12887;DHT22;6511;49.746;6.094;2023-04-08T06:06:19;2.30;99.90
12887;DHT22;6511;49.746;6.094;2023-04-08T06:08:45;2.40;99.90
12887;DHT22;6511;49.746;6.094;2023-04-08T06:11:11;2.50;99.90
12887;DHT22;6511;49.746;6.094;2023-04-08T06:13:37;2.60;99.90
12887;DHT22;6511;49.746;6.094;2023-04-08T06:16:13;2.50;99.90
12887;DHT22;6511;49.746;6.094;2023-04-08T06:18:39;2.50;99.90
12887;DHT22;6511;49.746;6.094;2023-04-08T06:21:05;2.60;99.90
12887;DHT22;6511;49.746;6.094;2023-04-08T06:23:31;2.60;99.90
12887;DHT22;6511;49.746;6.094;2023-04-08T06:25:56;2.60;99.90
12887;DHT22;6511;49.746;6.094;2023-04-08T06:28:23;2.70;99.90
12887;DHT22;6511;49.746;6.094;2023-04-08T06:30:48;2.80;99.90
12887;DHT22;6511;49.746;6.094;2023-04-08T06:33:14;2.80;99.90
12887;DHT22;6511;49.746;6.094;2023-04-08T06:35:40;2.90;99.90
12887;DHT22;6511;49.746;6.094;2023-04-08T06:38:06;3.00;99.90
12887;DHT22;6511;49.746;6.094;2023-04-08T06:40:31;3.10;99.90
12887;DHT22;6511;49.746;6.094;2023-04-08T06:42:57;3.20;99.90
12887;DHT22;6511;49.746;6.094;2023-04-08T06:45:23;3.30;99.90
12887;DHT22;6511;49.746;6.094;2023-04-08T06:47:48;3.40;99.90
12887;DHT22;6511;49.746;6.094;2023-04-08T06:50:14;3.50;99.90
12887;DHT22;6511;49.746;6.094;2023-04-08T06:52:40;3.60;99.90
12887;DHT22;6511;49.746;6.094;2023-04-08T06:55:05;3.70;99.90
12887;DHT22;6511;49.746;6.094;2023-04-08T06:57:31;3.70;99.90
12887;DHT22;6511;49.746;6.094;2023-04-08T06:59:57;3.80;99.90
12887;DHT22;6511;49.746;6.094;2023-04-08T07:02:22;3.90;99.90
12887;DHT22;6511;49.746;6.094;2023-04-08T07:04:48;4.00;99.90
12887;DHT22;6511;49.746;6.094;2023-04-08T07:07:14;4.20;99.90
12887;DHT22;6511;49.746;6.094;2023-04-08T07:09:40;4.30;99.90
12887;DHT22;6511;49.746;6.094;2023-04-08T07:12:07;4.40;99.90
12887;DHT22;6511;49.746;6.094;2023-04-08T07:14:33;4.60;99.90
12887;DHT22;6511;49.746;6.094;2023-04-08T07:16:58;4.70;99.90
12887;DHT22;6511;49.746;6.094;2023-04-08T07:19:24;4.80;99.90
12887;DHT22;6511;49.746;6.094;2023-04-08T07:21:50;4.90;99.90
12887;DHT22;6511;49.746;6.094;2023-04-08T07:24:17;5.10;99.90
12887;DHT22;6511;49.746;6.094;2023-04-08T07:26:43;5.10;99.90
12887;DHT22;6511;49.746;6.094;2023-04-08T07:29:09;5.30;99.90
12887;DHT22;6511;49.746;6.094;2023-04-08T07:31:34;5.40;99.90
12887;DHT22;6511;49.746;6.094;2023-04-08T07:34:00;5.50;99.90
12887;DHT22;6511;49.746;6.094;2023-04-08T07:36:26;5.60;99.90
12887;DHT22;6511;49.746;6.094;2023-04-08T07:38:52;5.70;99.90
12887;DHT22;6511;49.746;6.094;2023-04-08T07:41:18;5.80;99.90
12887;DHT22;6511;49.746;6.094;2023-04-08T07:43:45;5.90;99.90
12887;DHT22;6511;49.746;6.094;2023-04-08T07:46:11;5.90;99.90
12887;DHT22;6511;49.746;6.094;2023-04-08T07:48:36;6.10;99.90
12887;DHT22;6511;49.746;6.094;2023-04-08T07:51:07;6.20;99.90
12887;DHT22;6511;49.746;6.094;2023-04-08T07:53:33;6.30;99.90
12887;DHT22;6511;49.746;6.094;2023-04-08T07:55:59;6.40;99.90
12887;DHT22;6511;49.746;6.094;2023-04-08T07:58:25;6.60;99.90
12887;DHT22;6511;49.746;6.094;2023-04-08T08:00:52;6.70;99.90
12887;DHT22;6511;49.746;6.094;2023-04-08T08:03:17;6.70;99.90
12887;DHT22;6511;49.746;6.094;2023-04-08T08:05:43;6.70;99.90
12887;DHT22;6511;49.746;6.094;2023-04-08T08:08:09;6.80;99.90
12887;DHT22;6511;49.746;6.094;2023-04-08T08:10:38;7.00;99.90
12887;DHT22;6511;49.746;6.094;2023-04-08T08:13:05;7.10;99.90
12887;DHT22;6511;49.746;6.094;2023-04-08T08:15:31;7.10;99.90
12887;DHT22;6511;49.746;6.094;2023-04-08T08:17:57;7.10;99.90
12887;DHT22;6511;49.746;6.094;2023-04-08T08:20:23;7.20;99.90
12887;DHT22;6511;49.746;6.094;2023-04-08T08:22:48;7.30;99.90
12887;DHT22;6511;49.746;6.094;2023-04-08T08:25:15;7.40;99.90
12887;DHT22;6511;49.746;6.094;2023-04-08T08:27:42;7.50;99.90
12887;DHT22;6511;49.746;6.094;2023-04-08T08:30:08;7.60;99.90
12887;DHT22;6511;49.746;6.094;2023-04-08T08:32:34;7.70;99.90
12887;DHT22;6511;49.746;6.094;2023-04-08T08:35:01;7.80;99.90
12887;DHT22;6511;49.746;6.094;2023-04-08T08:37:26;7.80;99.90
12887;DHT22;6511;49.746;6.094;2023-04-08T08:39:52;7.90;99.90
12887;DHT22;6511;49.746;6.094;2023-04-08T08:42:22;8.00;99.90
12887;DHT22;6511;49.746;6.094;2023-04-08T08:44:48;8.00;99.90
12887;DHT22;6511;49.746;6.094;2023-04-08T08:47:15;8.00;99.90
12887;DHT22;6511;49.746;6.094;2023-04-08T08:49:41;8.20;99.90
12887;DHT22;6511;49.746;6.094;2023-04-08T08:52:07;8.30;99.90
12887;DHT22;6511;49.746;6.094;2023-04-08T08:54:32;8.40;99.90
12887;DHT22;6511;49.746;6.094;2023-04-08T08:56:58;8.40;99.90
12887;DHT22;6511;49.746;6.094;2023-04-08T08:59:24;8.40;99.90
12887;DHT22;6511;49.746;6.094;2023-04-08T09:01:49;8.60;99.90
12887;DHT22;6511;49.746;6.094;2023-04-08T09:04:20;8.70;99.90
12887;DHT22;6511;49.746;6.094;2023-04-08T09:06:48;8.80;99.90
12887;DHT22;6511;49.746;6.094;2023-04-08T09:09:17;9.00;99.90
12887;DHT22;6511;49.746;6.094;2023-04-08T09:11:44;9.20;99.90
12887;DHT22;6511;49.746;6.094;2023-04-08T09:14:25;9.30;99.90
12887;DHT22;6511;49.746;6.094;2023-04-08T09:16:51;9.40;99.90
12887;DHT22;6511;49.746;6.094;2023-04-08T09:19:17;9.60;99.90
12887;DHT22;6511;49.746;6.094;2023-04-08T09:21:43;9.50;99.90
12887;DHT22;6511;49.746;6.094;2023-04-08T09:24:26;9.70;99.90
12887;DHT22;6511;49.746;6.094;2023-04-08T09:26:53;9.90;99.90
12887;DHT22;6511;49.746;6.094;2023-04-08T09:29:23;9.90;99.90
12887;DHT22;6511;49.746;6.094;2023-04-08T09:31:56;9.90;99.90
12887;DHT22;6511;49.746;6.094;2023-04-08T09:34:22;10.00;99.90
12887;DHT22;6511;49.746;6.094;2023-04-08T09:36:49;10.00;99.90
12887;DHT22;6511;49.746;6.094;2023-04-08T09:39:15;10.30;99.90
12887;DHT22;6511;49.746;6.094;2023-04-08T09:41:41;10.30;99.90
12887;DHT22;6511;49.746;6.094;2023-04-08T09:44:09;10.30;99.90
12887;DHT22;6511;49.746;6.094;2023-04-08T09:46:59;10.30;99.90
12887;DHT22;6511;49.746;6.094;2023-04-08T09:52:09;10.50;99.90
12887;DHT22;6511;49.746;6.094;2023-04-08T09:57:45;10.70;99.90
12887;DHT22;6511;49.746;6.094;2023-04-08T10:00:16;10.70;99.90
12887;DHT22;6511;49.746;6.094;2023-04-08T10:02:59;10.70;99.90
12887;DHT22;6511;49.746;6.094;2023-04-08T10:05:26;10.80;99.90
12887;DHT22;6511;49.746;6.094;2023-04-08T10:07:52;11.10;99.90
12887;DHT22;6511;49.746;6.094;2023-04-08T10:10:21;11.00;99.90
12887;DHT22;6511;49.746;6.094;2023-04-08T10:12:47;11.10;99.90
12887;DHT22;6511;49.746;6.094;2023-04-08T10:15:29;11.40;99.90
12887;DHT22;6511;49.746;6.094;2023-04-08T10:23:06;10.80;99.90
12887;DHT22;6511;49.746;6.094;2023-04-08T10:25:33;10.90;99.90
12887;DHT22;6511;49.746;6.094;2023-04-08T10:30:41;11.70;99.90
12887;DHT22;6511;49.746;6.094;2023-04-08T10:33:14;11.60;99.90
12887;DHT22;6511;49.746;6.094;2023-04-08T10:38:24;11.50;99.90
12887;DHT22;6511;49.746;6.094;2023-04-08T10:40:50;11.50;99.90
12887;DHT22;6511;49.746;6.094;2023-04-08T10:43:16;11.40;99.90
12887;DHT22;6511;49.746;6.094;2023-04-08T10:45:43;11.30;99.90
12887;DHT22;6511;49.746;6.094;2023-04-08T10:48:11;11.10;99.90
12887;DHT22;6511;49.746;6.094;2023-04-08T10:50:37;11.10;99.90
12887;DHT22;6511;49.746;6.094;2023-04-08T10:53:03;11.20;99.90
12887;DHT22;6511;49.746;6.094;2023-04-08T10:55:29;11.40;99.90
12887;DHT22;6511;49.746;6.094;2023-04-08T10:58:05;11.40;99.90
12887;DHT22;6511;49.746;6.094;2023-04-08T11:00:33;11.70;99.90
12887;DHT22;6511;49.746;6.094;2023-04-08T11:03:03;11.80;99.90
12887;DHT22;6511;49.746;6.094;2023-04-08T11:05:29;12.10;99.90
12887;DHT22;6511;49.746;6.094;2023-04-08T11:07:55;11.90;99.90
12887;DHT22;6511;49.746;6.094;2023-04-08T11:10:22;12.10;99.90
12887;DHT22;6511;49.746;6.094;2023-04-08T11:12:48;12.10;99.90
12887;DHT22;6511;49.746;6.094;2023-04-08T11:15:14;11.90;99.90
12887;DHT22;6511;49.746;6.094;2023-04-08T11:17:41;11.90;99.90
12887;DHT22;6511;49.746;6.094;2023-04-08T11:20:08;11.80;99.90
12887;DHT22;6511;49.746;6.094;2023-04-08T11:22:35;11.80;99.90
12887;DHT22;6511;49.746;6.094;2023-04-08T11:25:01;12.00;99.90
12887;DHT22;6511;49.746;6.094;2023-04-08T11:27:27;12.10;99.90
12887;DHT22;6511;49.746;6.094;2023-04-08T11:29:54;12.00;99.90
12887;DHT22;6511;49.746;6.094;2023-04-08T11:32:21;12.50;99.90
12887;DHT22;6511;49.746;6.094;2023-04-08T11:34:48;12.70;99.90
12887;DHT22;6511;49.746;6.094;2023-04-08T11:37:14;12.60;99.90
12887;DHT22;6511;49.746;6.094;2023-04-08T11:39:43;12.60;99.90
12887;DHT22;6511;49.746;6.094;2023-04-08T11:42:24;12.30;99.90
12887;DHT22;6511;49.746;6.094;2023-04-08T11:44:50;12.00;99.90
12887;DHT22;6511;49.746;6.094;2023-04-08T11:47:16;11.90;99.90
12887;DHT22;6511;49.746;6.094;2023-04-08T11:49:45;11.80;99.90
12887;DHT22;6511;49.746;6.094;2023-04-08T11:52:11;11.80;99.90
12887;DHT22;6511;49.746;6.094;2023-04-08T11:54:40;12.10;99.90
12887;DHT22;6511;49.746;6.094;2023-04-08T11:57:07;12.30;99.90
12887;DHT22;6511;49.746;6.094;2023-04-08T11:59:37;12.40;99.90
12887;DHT22;6511;49.746;6.094;2023-04-08T12:02:03;12.50;99.90
12887;DHT22;6511;49.746;6.094;2023-04-08T12:04:29;12.80;99.90
12887;DHT22;6511;49.746;6.094;2023-04-08T12:06:55;12.70;99.90
12887;DHT22;6511;49.746;6.094;2023-04-08T12:09:21;12.40;99.90
12887;DHT22;6511;49.746;6.094;2023-04-08T12:11:47;12.20;99.90
12887;DHT22;6511;49.746;6.094;2023-04-08T12:14:13;12.20;99.90
12887;DHT22;6511;49.746;6.094;2023-04-08T12:16:38;12.10;99.90
12887;DHT22;6511;49.746;6.094;2023-04-08T12:19:04;12.30;99.90
12887;DHT22;6511;49.746;6.094;2023-04-08T12:21:30;12.60;99.90
12887;DHT22;6511;49.746;6.094;2023-04-08T12:23:56;12.50;99.90
12887;DHT22;6511;49.746;6.094;2023-04-08T12:26:22;12.50;99.90
12887;DHT22;6511;49.746;6.094;2023-04-08T12:28:48;12.40;99.90
12887;DHT22;6511;49.746;6.094;2023-04-08T12:31:14;12.30;99.90
12887;DHT22;6511;49.746;6.094;2023-04-08T12:33:39;12.50;99.90
12887;DHT22;6511;49.746;6.094;2023-04-08T12:36:05;12.70;99.90
12887;DHT22;6511;49.746;6.094;2023-04-08T12:38:31;12.80;99.90
12887;DHT22;6511;49.746;6.094;2023-04-08T12:40:57;12.80;99.90
12887;DHT22;6511;49.746;6.094;2023-04-08T12:43:23;12.70;99.90
12887;DHT22;6511;49.746;6.094;2023-04-08T12:45:49;12.90;99.90
12887;DHT22;6511;49.746;6.094;2023-04-08T12:48:15;13.20;99.90
12887;DHT22;6511;49.746;6.094;2023-04-08T12:50:40;13.40;99.90
12887;DHT22;6511;49.746;6.094;2023-04-08T12:53:06;13.50;99.90
12887;DHT22;6511;49.746;6.094;2023-04-08T12:55:31;13.30;99.90
12887;DHT22;6511;49.746;6.094;2023-04-08T12:57:57;13.60;99.90
12887;DHT22;6511;49.746;6.094;2023-04-08T13:00:23;14.10;99.90
12887;DHT22;6511;49.746;6.094;2023-04-08T13:02:48;14.60;99.90
12887;DHT22;6511;49.746;6.094;2023-04-08T13:05:14;14.80;99.90
12887;DHT22;6511;49.746;6.094;2023-04-08T13:07:40;14.70;99.90
12887;DHT22;6511;49.746;6.094;2023-04-08T13:10:06;14.50;99.90
12887;DHT22;6511;49.746;6.094;2023-04-08T13:12:32;14.20;99.90
12887;DHT22;6511;49.746;6.094;2023-04-08T13:14:57;14.10;99.90
12887;DHT22;6511;49.746;6.094;2023-04-08T13:17:24;14.10;99.90
12887;DHT22;6511;49.746;6.094;2023-04-08T13:19:50;13.90;99.90
12887;DHT22;6511;49.746;6.094;2023-04-08T13:22:16;13.60;99.90
12887;DHT22;6511;49.746;6.094;2023-04-08T13:24:42;13.70;99.90
12887;DHT22;6511;49.746;6.094;2023-04-08T13:27:08;13.60;99.90
12887;DHT22;6511;49.746;6.094;2023-04-08T13:29:33;13.40;99.90
12887;DHT22;6511;49.746;6.094;2023-04-08T13:31:59;13.40;99.90
12887;DHT22;6511;49.746;6.094;2023-04-08T13:34:26;13.30;99.90
12887;DHT22;6511;49.746;6.094;2023-04-08T13:36:51;13.40;99.90
12887;DHT22;6511;49.746;6.094;2023-04-08T13:39:17;13.50;99.90
12887;DHT22;6511;49.746;6.094;2023-04-08T13:41:43;13.60;99.90
12887;DHT22;6511;49.746;6.094;2023-04-08T13:44:08;13.70;99.90
12887;DHT22;6511;49.746;6.094;2023-04-08T13:46:34;13.90;99.90
12887;DHT22;6511;49.746;6.094;2023-04-08T13:49:00;14.10;99.90
12887;DHT22;6511;49.746;6.094;2023-04-08T13:51:27;14.40;99.90
12887;DHT22;6511;49.746;6.094;2023-04-08T13:53:53;14.30;99.90
12887;DHT22;6511;49.746;6.094;2023-04-08T13:56:19;14.20;99.90
12887;DHT22;6511;49.746;6.094;2023-04-08T13:58:45;14.10;99.90
12887;DHT22;6511;49.746;6.094;2023-04-08T14:01:11;14.00;99.90
12887;DHT22;6511;49.746;6.094;2023-04-08T14:03:37;14.20;99.90
12887;DHT22;6511;49.746;6.094;2023-04-08T14:06:02;14.40;99.90
12887;DHT22;6511;49.746;6.094;2023-04-08T14:08:28;14.40;99.90
12887;DHT22;6511;49.746;6.094;2023-04-08T14:10:57;14.30;99.90
12887;DHT22;6511;49.746;6.094;2023-04-08T14:13:23;14.20;99.90
12887;DHT22;6511;49.746;6.094;2023-04-08T14:15:49;14.30;99.90
12887;DHT22;6511;49.746;6.094;2023-04-08T14:18:15;14.20;99.90
12887;DHT22;6511;49.746;6.094;2023-04-08T14:20:42;14.00;99.90
12887;DHT22;6511;49.746;6.094;2023-04-08T14:23:08;14.00;99.90
12887;DHT22;6511;49.746;6.094;2023-04-08T14:25:33;13.90;99.90
12887;DHT22;6511;49.746;6.094;2023-04-08T14:27:59;13.90;99.90
12887;DHT22;6511;49.746;6.094;2023-04-08T14:30:25;14.00;99.90
12887;DHT22;6511;49.746;6.094;2023-04-08T14:32:51;14.00;99.90
12887;DHT22;6511;49.746;6.094;2023-04-08T14:35:17;13.90;99.90
12887;DHT22;6511;49.746;6.094;2023-04-08T14:37:42;13.70;99.90
12887;DHT22;6511;49.746;6.094;2023-04-08T14:40:08;13.40;99.90
12887;DHT22;6511;49.746;6.094;2023-04-08T14:42:35;13.50;99.90
12887;DHT22;6511;49.746;6.094;2023-04-08T14:45:00;13.50;99.90
12887;DHT22;6511;49.746;6.094;2023-04-08T14:47:26;13.50;99.90
12887;DHT22;6511;49.746;6.094;2023-04-08T14:49:52;13.50;99.90
12887;DHT22;6511;49.746;6.094;2023-04-08T14:52:17;13.40;99.90
12887;DHT22;6511;49.746;6.094;2023-04-08T14:54:43;13.40;99.90
12887;DHT22;6511;49.746;6.094;2023-04-08T14:57:09;13.30;99.90
12887;DHT22;6511;49.746;6.094;2023-04-08T14:59:35;13.30;99.90
12887;DHT22;6511;49.746;6.094;2023-04-08T15:02:01;13.30;99.90
12887;DHT22;6511;49.746;6.094;2023-04-08T15:04:27;13.30;99.90
12887;DHT22;6511;49.746;6.094;2023-04-08T15:06:52;13.40;99.90
12887;DHT22;6511;49.746;6.094;2023-04-08T15:09:18;13.60;99.90
12887;DHT22;6511;49.746;6.094;2023-04-08T15:11:43;13.50;99.90
12887;DHT22;6511;49.746;6.094;2023-04-08T15:14:09;13.40;99.90
12887;DHT22;6511;49.746;6.094;2023-04-08T15:16:36;13.50;99.90
12887;DHT22;6511;49.746;6.094;2023-04-08T15:19:01;13.50;99.90
12887;DHT22;6511;49.746;6.094;2023-04-08T15:21:27;13.40;99.90
12887;DHT22;6511;49.746;6.094;2023-04-08T15:23:52;13.30;99.90
12887;DHT22;6511;49.746;6.094;2023-04-08T15:26:18;13.30;99.90
12887;DHT22;6511;49.746;6.094;2023-04-08T15:28:44;13.20;99.90
12887;DHT22;6511;49.746;6.094;2023-04-08T15:31:09;13.30;99.90
12887;DHT22;6511;49.746;6.094;2023-04-08T15:33:35;13.40;99.90
12887;DHT22;6511;49.746;6.094;2023-04-08T15:36:06;13.50;99.90
12887;DHT22;6511;49.746;6.094;2023-04-08T15:38:31;13.60;99.90
12887;DHT22;6511;49.746;6.094;2023-04-08T15:40:58;13.80;99.90
12887;DHT22;6511;49.746;6.094;2023-04-08T15:43:23;14.10;99.90
12887;DHT22;6511;49.746;6.094;2023-04-08T15:45:49;13.80;99.90
12887;DHT22;6511;49.746;6.094;2023-04-08T15:48:14;13.60;99.90
12887;DHT22;6511;49.746;6.094;2023-04-08T15:50:40;13.60;99.90
12887;DHT22;6511;49.746;6.094;2023-04-08T15:53:06;13.60;99.90
12887;DHT22;6511;49.746;6.094;2023-04-08T15:55:39;13.50;99.90
12887;DHT22;6511;49.746;6.094;2023-04-08T15:58:06;13.50;99.90
12887;DHT22;6511;49.746;6.094;2023-04-08T16:00:32;13.30;99.90
12887;DHT22;6511;49.746;6.094;2023-04-08T16:02:58;13.40;99.90
12887;DHT22;6511;49.746;6.094;2023-04-08T16:05:24;13.40;99.90
12887;DHT22;6511;49.746;6.094;2023-04-08T16:07:49;13.40;99.90
12887;DHT22;6511;49.746;6.094;2023-04-08T16:10:15;13.40;99.90
12887;DHT22;6511;49.746;6.094;2023-04-08T16:12:41;13.40;99.90